sensor_id;sensor_type;location;lat;lon;timestamp;P1;durP1;ratioP1;P2;durP2;ratioP2
47749;SDS011;49810;48.160;10.812;2023-04-15T00:02:17;19.33;;;6.28;;
47749;SDS011;49810;48.160;10.812;2023-04-15T00:04:46;15.73;;;6.20;;
47749;SDS011;49810;48.160;10.812;2023-04-15T00:07:14;12.95;;;5.15;;
47749;SDS011;49810;48.160;10.812;2023-04-15T00:09:42;11.63;;;5.07;;
47749;SDS011;49810;48.160;10.812;2023-04-15T00:12:10;9.48;;;4.93;;
47749;SDS011;49810;48.160;10.812;2023-04-15T00:14:39;9.40;;;4.82;;
47749;SDS011;49810;48.160;10.812;2023-04-15T00:17:06;12.27;;;4.85;;
47749;SDS011;49810;48.160;10.812;2023-04-15T00:19:36;13.82;;;4.35;;
47749;SDS011;49810;48.160;10.812;2023-04-15T00:22:03;12.63;;;4.80;;
47749;SDS011;49810;48.160;10.812;2023-04-15T00:24:31;10.38;;;4.38;;
47749;SDS011;49810;48.160;10.812;2023-04-15T00:27:00;10.65;;;5.28;;
47749;SDS011;49810;48.160;10.812;2023-04-15T00:29:28;12.38;;;5.15;;
47749;SDS011;49810;48.160;10.812;2023-04-15T00:31:56;11.60;;;5.32;;
47749;SDS011;49810;48.160;10.812;2023-04-15T00:34:23;10.40;;;5.20;;
47749;SDS011;49810;48.160;10.812;2023-04-15T00:36:53;15.32;;;5.95;;
47749;SDS011;49810;48.160;10.812;2023-04-15T00:39:21;11.10;;;5.30;;
47749;SDS011;49810;48.160;10.812;2023-04-15T00:41:49;16.10;;;6.05;;
47749;SDS011;49810;48.160;10.812;2023-04-15T00:44:16;10.50;;;5.13;;
47749;SDS011;49810;48.160;10.812;2023-04-15T00:46:46;11.00;;;5.25;;
47749;SDS011;49810;48.160;10.812;2023-04-15T00:49:14;9.57;;;5.13;;
47749;SDS011;49810;48.160;10.812;2023-04-15T00:51:43;13.43;;;5.80;;
47749;SDS011;49810;48.160;10.812;2023-04-15T00:54:12;12.82;;;5.72;;
47749;SDS011;49810;48.160;10.812;2023-04-15T00:56:40;11.98;;;6.03;;
47749;SDS011;49810;48.160;10.812;2023-04-15T00:59:08;13.85;;;5.80;;
47749;SDS011;49810;48.160;10.812;2023-04-15T01:01:36;19.00;;;6.18;;
47749;SDS011;49810;48.160;10.812;2023-04-15T01:04:04;14.20;;;6.75;;
47749;SDS011;49810;48.160;10.812;2023-04-15T01:06:35;9.98;;;6.35;;
47749;SDS011;49810;48.160;10.812;2023-04-15T01:09:03;14.98;;;6.47;;
47749;SDS011;49810;48.160;10.812;2023-04-15T01:11:33;18.52;;;7.65;;
47749;SDS011;49810;48.160;10.812;2023-04-15T01:14:01;17.15;;;6.75;;
47749;SDS011;49810;48.160;10.812;2023-04-15T01:16:29;15.25;;;6.78;;
47749;SDS011;49810;48.160;10.812;2023-04-15T01:18:58;14.80;;;6.60;;
47749;SDS011;49810;48.160;10.812;2023-04-15T01:21:26;17.55;;;7.13;;
47749;SDS011;49810;48.160;10.812;2023-04-15T01:23:54;14.30;;;6.70;;
47749;SDS011;49810;48.160;10.812;2023-04-15T01:26:26;16.77;;;6.72;;
47749;SDS011;49810;48.160;10.812;2023-04-15T01:28:54;14.77;;;6.18;;
47749;SDS011;49810;48.160;10.812;2023-04-15T01:31:23;9.70;;;5.70;;
47749;SDS011;49810;48.160;10.812;2023-04-15T01:33:51;13.65;;;5.13;;
47749;SDS011;49810;48.160;10.812;2023-04-15T01:36:37;10.02;;;4.90;;
47749;SDS011;49810;48.160;10.812;2023-04-15T01:39:05;12.77;;;5.03;;
47749;SDS011;49810;48.160;10.812;2023-04-15T01:41:35;10.75;;;4.47;;
47749;SDS011;49810;48.160;10.812;2023-04-15T01:44:04;13.40;;;4.85;;
47749;SDS011;49810;48.160;10.812;2023-04-15T01:46:34;14.10;;;4.80;;
47749;SDS011;49810;48.160;10.812;2023-04-15T01:49:04;12.73;;;5.78;;
47749;SDS011;49810;48.160;10.812;2023-04-15T01:51:34;10.52;;;5.10;;
47749;SDS011;49810;48.160;10.812;2023-04-15T01:54:03;13.20;;;5.18;;
47749;SDS011;49810;48.160;10.812;2023-04-15T01:56:32;12.77;;;5.32;;
47749;SDS011;49810;48.160;10.812;2023-04-15T01:59:04;11.75;;;5.07;;
47749;SDS011;49810;48.160;10.812;2023-04-15T02:01:34;14.27;;;6.10;;
47749;SDS011;49810;48.160;10.812;2023-04-15T02:04:03;12.90;;;5.70;;
47749;SDS011;49810;48.160;10.812;2023-04-15T02:06:32;13.02;;;5.53;;
47749;SDS011;49810;48.160;10.812;2023-04-15T02:09:01;11.65;;;4.50;;
47749;SDS011;49810;48.160;10.812;2023-04-15T02:11:31;10.20;;;4.55;;
47749;SDS011;49810;48.160;10.812;2023-04-15T02:14:01;11.80;;;4.38;;
47749;SDS011;49810;48.160;10.812;2023-04-15T02:16:32;11.27;;;4.43;;
47749;SDS011;49810;48.160;10.812;2023-04-15T02:19:01;9.07;;;4.80;;
47749;SDS011;49810;48.160;10.812;2023-04-15T02:21:30;11.90;;;4.40;;
47749;SDS011;49810;48.160;10.812;2023-04-15T02:23:59;14.00;;;6.20;;
47749;SDS011;49810;48.160;10.812;2023-04-15T02:26:29;12.70;;;6.07;;
47749;SDS011;49810;48.160;10.812;2023-04-15T02:28:59;12.07;;;4.82;;
47749;SDS011;49810;48.160;10.812;2023-04-15T02:31:28;12.02;;;4.18;;
47749;SDS011;49810;48.160;10.812;2023-04-15T02:34:02;13.60;;;4.38;;
47749;SDS011;49810;48.160;10.812;2023-04-15T02:36:31;10.88;;;4.25;;
47749;SDS011;49810;48.160;10.812;2023-04-15T02:39:01;10.85;;;4.65;;
47749;SDS011;49810;48.160;10.812;2023-04-15T02:41:31;10.57;;;4.45;;
47749;SDS011;49810;48.160;10.812;2023-04-15T02:44:00;13.73;;;4.38;;
47749;SDS011;49810;48.160;10.812;2023-04-15T02:46:30;8.10;;;3.70;;
47749;SDS011;49810;48.160;10.812;2023-04-15T02:48:59;11.75;;;4.05;;
47749;SDS011;49810;48.160;10.812;2023-04-15T02:51:31;12.93;;;4.05;;
47749;SDS011;49810;48.160;10.812;2023-04-15T02:54:01;9.98;;;4.28;;
47749;SDS011;49810;48.160;10.812;2023-04-15T02:56:30;15.48;;;4.72;;
47749;SDS011;49810;48.160;10.812;2023-04-15T02:58:59;9.48;;;3.80;;
47749;SDS011;49810;48.160;10.812;2023-04-15T03:01:29;9.88;;;3.97;;
47749;SDS011;49810;48.160;10.812;2023-04-15T03:03:58;12.80;;;3.95;;
47749;SDS011;49810;48.160;10.812;2023-04-15T03:06:27;12.88;;;4.22;;
47749;SDS011;49810;48.160;10.812;2023-04-15T03:08:58;8.18;;;3.67;;
47749;SDS011;49810;48.160;10.812;2023-04-15T03:11:33;15.32;;;4.20;;
47749;SDS011;49810;48.160;10.812;2023-04-15T03:14:04;8.98;;;3.88;;
47749;SDS011;49810;48.160;10.812;2023-04-15T03:16:35;13.35;;;4.15;;
47749;SDS011;49810;48.160;10.812;2023-04-15T03:19:04;13.30;;;4.15;;
47749;SDS011;49810;48.160;10.812;2023-04-15T03:21:34;11.07;;;3.95;;
47749;SDS011;49810;48.160;10.812;2023-04-15T03:24:05;8.15;;;3.88;;
47749;SDS011;49810;48.160;10.812;2023-04-15T03:26:34;11.18;;;3.65;;
47749;SDS011;49810;48.160;10.812;2023-04-15T03:29:10;8.15;;;3.20;;
47749;SDS011;49810;48.160;10.812;2023-04-15T03:31:40;10.13;;;3.95;;
47749;SDS011;49810;48.160;10.812;2023-04-15T03:34:09;8.73;;;3.22;;
47749;SDS011;49810;48.160;10.812;2023-04-15T03:36:38;11.70;;;3.78;;
47749;SDS011;49810;48.160;10.812;2023-04-15T03:39:09;7.85;;;3.60;;
47749;SDS011;49810;48.160;10.812;2023-04-15T03:41:38;7.78;;;4.22;;
47749;SDS011;49810;48.160;10.812;2023-04-15T03:44:07;11.57;;;4.35;;
47749;SDS011;49810;48.160;10.812;2023-04-15T03:46:37;14.82;;;6.75;;
47749;SDS011;49810;48.160;10.812;2023-04-15T03:49:06;13.13;;;4.63;;
47749;SDS011;49810;48.160;10.812;2023-04-15T03:51:35;21.25;;;5.88;;
47749;SDS011;49810;48.160;10.812;2023-04-15T03:54:04;13.82;;;5.25;;
47749;SDS011;49810;48.160;10.812;2023-04-15T03:56:35;10.55;;;3.88;;
47749;SDS011;49810;48.160;10.812;2023-04-15T03:59:04;9.75;;;3.95;;
47749;SDS011;49810;48.160;10.812;2023-04-15T04:01:33;11.68;;;3.33;;
47749;SDS011;49810;48.160;10.812;2023-04-15T04:04:02;9.13;;;3.45;;
47749;SDS011;49810;48.160;10.812;2023-04-15T04:06:32;8.38;;;3.33;;
47749;SDS011;49810;48.160;10.812;2023-04-15T04:09:01;7.22;;;3.00;;
47749;SDS011;49810;48.160;10.812;2023-04-15T04:11:30;7.00;;;2.72;;
47749;SDS011;49810;48.160;10.812;2023-04-15T04:14:01;7.38;;;3.00;;
47749;SDS011;49810;48.160;10.812;2023-04-15T04:16:30;14.38;;;3.40;;
47749;SDS011;49810;48.160;10.812;2023-04-15T04:19:00;9.55;;;2.83;;
47749;SDS011;49810;48.160;10.812;2023-04-15T04:21:29;12.88;;;3.28;;
47749;SDS011;49810;48.160;10.812;2023-04-15T04:24:00;12.15;;;3.83;;
47749;SDS011;49810;48.160;10.812;2023-04-15T04:26:29;9.90;;;3.35;;
47749;SDS011;49810;48.160;10.812;2023-04-15T04:28:58;8.55;;;3.03;;
47749;SDS011;49810;48.160;10.812;2023-04-15T04:31:29;7.72;;;3.25;;
47749;SDS011;49810;48.160;10.812;2023-04-15T04:33:59;8.50;;;3.13;;
47749;SDS011;49810;48.160;10.812;2023-04-15T04:36:28;6.68;;;2.72;;
47749;SDS011;49810;48.160;10.812;2023-04-15T04:38:57;7.95;;;2.75;;
47749;SDS011;49810;48.160;10.812;2023-04-15T04:41:27;7.47;;;2.65;;
47749;SDS011;49810;48.160;10.812;2023-04-15T04:43:56;6.38;;;2.53;;
47749;SDS011;49810;48.160;10.812;2023-04-15T04:46:25;9.90;;;2.75;;
47749;SDS011;49810;48.160;10.812;2023-04-15T04:48:56;6.05;;;2.30;;
47749;SDS011;49810;48.160;10.812;2023-04-15T04:51:25;6.60;;;2.33;;
47749;SDS011;49810;48.160;10.812;2023-04-15T04:53:55;9.73;;;2.70;;
47749;SDS011;49810;48.160;10.812;2023-04-15T04:56:24;8.13;;;2.35;;
47749;SDS011;49810;48.160;10.812;2023-04-15T04:58:53;6.22;;;2.58;;
47749;SDS011;49810;48.160;10.812;2023-04-15T05:01:23;8.98;;;3.00;;
47749;SDS011;49810;48.160;10.812;2023-04-15T05:03:53;8.25;;;3.25;;
47749;SDS011;49810;48.160;10.812;2023-04-15T05:06:24;6.35;;;2.63;;
47749;SDS011;49810;48.160;10.812;2023-04-15T05:08:53;10.65;;;3.67;;
47749;SDS011;49810;48.160;10.812;2023-04-15T05:11:23;7.78;;;3.17;;
47749;SDS011;49810;48.160;10.812;2023-04-15T05:13:52;7.90;;;3.35;;
47749;SDS011;49810;48.160;10.812;2023-04-15T05:16:22;9.88;;;2.85;;
47749;SDS011;49810;48.160;10.812;2023-04-15T05:18:52;5.65;;;2.17;;
47749;SDS011;49810;48.160;10.812;2023-04-15T05:21:23;7.53;;;2.67;;
47749;SDS011;49810;48.160;10.812;2023-04-15T05:23:52;9.80;;;2.33;;
47749;SDS011;49810;48.160;10.812;2023-04-15T05:26:21;8.45;;;2.80;;
47749;SDS011;49810;48.160;10.812;2023-04-15T05:28:51;6.40;;;2.13;;
47749;SDS011;49810;48.160;10.812;2023-04-15T05:31:20;7.40;;;2.38;;
47749;SDS011;49810;48.160;10.812;2023-04-15T05:33:49;6.10;;;2.35;;
47749;SDS011;49810;48.160;10.812;2023-04-15T05:36:18;6.65;;;2.20;;
47749;SDS011;49810;48.160;10.812;2023-04-15T05:38:49;6.60;;;2.08;;
47749;SDS011;49810;48.160;10.812;2023-04-15T05:41:18;10.88;;;2.53;;
47749;SDS011;49810;48.160;10.812;2023-04-15T05:43:48;8.10;;;2.80;;
47749;SDS011;49810;48.160;10.812;2023-04-15T05:46:17;5.13;;;2.35;;
47749;SDS011;49810;48.160;10.812;2023-04-15T05:48:46;5.50;;;2.28;;
47749;SDS011;49810;48.160;10.812;2023-04-15T05:51:15;6.35;;;2.13;;
47749;SDS011;49810;48.160;10.812;2023-04-15T05:53:44;5.07;;;2.78;;
47749;SDS011;49810;48.160;10.812;2023-04-15T05:56:15;4.55;;;2.15;;
47749;SDS011;49810;48.160;10.812;2023-04-15T05:58:44;10.82;;;2.22;;
47749;SDS011;49810;48.160;10.812;2023-04-15T06:01:14;6.80;;;2.17;;
47749;SDS011;49810;48.160;10.812;2023-04-15T06:03:44;7.78;;;2.60;;
47749;SDS011;49810;48.160;10.812;2023-04-15T06:06:13;5.80;;;1.92;;
47749;SDS011;49810;48.160;10.812;2023-04-15T06:08:42;5.90;;;2.10;;
47749;SDS011;49810;48.160;10.812;2023-04-15T06:11:11;6.65;;;2.22;;
47749;SDS011;49810;48.160;10.812;2023-04-15T06:13:41;3.97;;;1.48;;
47749;SDS011;49810;48.160;10.812;2023-04-15T06:16:11;5.38;;;1.83;;
47749;SDS011;49810;48.160;10.812;2023-04-15T06:18:40;3.83;;;1.75;;
47749;SDS011;49810;48.160;10.812;2023-04-15T06:21:09;7.40;;;2.13;;
47749;SDS011;49810;48.160;10.812;2023-04-15T06:23:38;4.13;;;1.70;;
47749;SDS011;49810;48.160;10.812;2023-04-15T06:26:08;4.25;;;2.05;;
47749;SDS011;49810;48.160;10.812;2023-04-15T06:28:37;3.70;;;1.40;;
47749;SDS011;49810;48.160;10.812;2023-04-15T06:31:08;9.63;;;2.97;;
47749;SDS011;49810;48.160;10.812;2023-04-15T06:33:37;6.07;;;1.80;;
47749;SDS011;49810;48.160;10.812;2023-04-15T06:36:07;5.00;;;1.67;;
47749;SDS011;49810;48.160;10.812;2023-04-15T06:38:36;7.47;;;2.15;;
47749;SDS011;49810;48.160;10.812;2023-04-15T06:41:05;5.65;;;2.10;;
47749;SDS011;49810;48.160;10.812;2023-04-15T06:43:34;5.53;;;1.98;;
47749;SDS011;49810;48.160;10.812;2023-04-15T06:46:03;4.63;;;1.60;;
47749;SDS011;49810;48.160;10.812;2023-04-15T06:48:34;4.40;;;1.60;;
47749;SDS011;49810;48.160;10.812;2023-04-15T06:51:04;3.25;;;1.20;;
47749;SDS011;49810;48.160;10.812;2023-04-15T06:53:33;4.18;;;1.35;;
47749;SDS011;49810;48.160;10.812;2023-04-15T06:56:07;5.85;;;1.23;;
47749;SDS011;49810;48.160;10.812;2023-04-15T06:58:37;4.20;;;1.40;;
47749;SDS011;49810;48.160;10.812;2023-04-15T07:01:06;5.03;;;1.63;;
47749;SDS011;49810;48.160;10.812;2023-04-15T07:03:37;6.40;;;1.55;;
47749;SDS011;49810;48.160;10.812;2023-04-15T07:06:06;6.65;;;1.48;;
47749;SDS011;49810;48.160;10.812;2023-04-15T07:08:36;5.55;;;1.30;;
47749;SDS011;49810;48.160;10.812;2023-04-15T07:11:06;6.05;;;1.98;;
47749;SDS011;49810;48.160;10.812;2023-04-15T07:13:35;5.10;;;1.48;;
47749;SDS011;49810;48.160;10.812;2023-04-15T07:16:04;5.38;;;1.63;;
47749;SDS011;49810;48.160;10.812;2023-04-15T07:18:33;4.38;;;1.30;;
47749;SDS011;49810;48.160;10.812;2023-04-15T07:21:04;8.10;;;1.75;;
47749;SDS011;49810;48.160;10.812;2023-04-15T07:23:33;5.57;;;1.30;;
47749;SDS011;49810;48.160;10.812;2023-04-15T07:26:03;5.63;;;1.15;;
47749;SDS011;49810;48.160;10.812;2023-04-15T07:28:33;4.15;;;1.13;;
47749;SDS011;49810;48.160;10.812;2023-04-15T07:31:03;4.25;;;1.30;;
47749;SDS011;49810;48.160;10.812;2023-04-15T07:33:32;4.32;;;1.40;;
47749;SDS011;49810;48.160;10.812;2023-04-15T07:36:02;4.53;;;1.30;;
47749;SDS011;49810;48.160;10.812;2023-04-15T07:38:33;7.20;;;1.48;;
47749;SDS011;49810;48.160;10.812;2023-04-15T07:41:02;4.32;;;1.60;;
47749;SDS011;49810;48.160;10.812;2023-04-15T07:43:32;5.15;;;1.85;;
47749;SDS011;49810;48.160;10.812;2023-04-15T07:46:01;4.60;;;1.70;;
47749;SDS011;49810;48.160;10.812;2023-04-15T07:48:30;7.20;;;1.80;;
47749;SDS011;49810;48.160;10.812;2023-04-15T07:50:59;5.15;;;1.40;;
47749;SDS011;49810;48.160;10.812;2023-04-15T07:53:29;6.40;;;1.60;;
47749;SDS011;49810;48.160;10.812;2023-04-15T07:56:01;6.72;;;1.70;;
47749;SDS011;49810;48.160;10.812;2023-04-15T07:58:30;7.75;;;1.70;;
47749;SDS011;49810;48.160;10.812;2023-04-15T08:00:59;5.03;;;1.55;;
47749;SDS011;49810;48.160;10.812;2023-04-15T08:03:28;6.93;;;2.17;;
47749;SDS011;49810;48.160;10.812;2023-04-15T08:05:58;7.80;;;1.92;;
47749;SDS011;49810;48.160;10.812;2023-04-15T08:08:27;3.80;;;1.63;;
47749;SDS011;49810;48.160;10.812;2023-04-15T08:10:57;4.72;;;1.70;;
47749;SDS011;49810;48.160;10.812;2023-04-15T08:13:27;5.85;;;1.80;;
47749;SDS011;49810;48.160;10.812;2023-04-15T08:16:12;5.22;;;1.67;;
47749;SDS011;49810;48.160;10.812;2023-04-15T08:18:43;7.40;;;2.28;;
47749;SDS011;49810;48.160;10.812;2023-04-15T08:21:12;7.15;;;2.25;;
47749;SDS011;49810;48.160;10.812;2023-04-15T08:23:41;4.90;;;1.63;;
47749;SDS011;49810;48.160;10.812;2023-04-15T08:26:10;8.68;;;2.60;;
47749;SDS011;49810;48.160;10.812;2023-04-15T08:28:41;9.13;;;2.20;;
47749;SDS011;49810;48.160;10.812;2023-04-15T08:31:10;6.97;;;2.15;;
47749;SDS011;49810;48.160;10.812;2023-04-15T08:33:40;6.18;;;2.17;;
47749;SDS011;49810;48.160;10.812;2023-04-15T08:36:09;4.82;;;1.95;;
47749;SDS011;49810;48.160;10.812;2023-04-15T08:38:38;6.75;;;2.00;;
47749;SDS011;49810;48.160;10.812;2023-04-15T08:41:10;8.00;;;2.53;;
47749;SDS011;49810;48.160;10.812;2023-04-15T08:43:50;5.50;;;2.35;;
47749;SDS011;49810;48.160;10.812;2023-04-15T08:46:20;5.47;;;1.85;;
47749;SDS011;49810;48.160;10.812;2023-04-15T08:48:50;5.78;;;1.98;;
47749;SDS011;49810;48.160;10.812;2023-04-15T08:51:19;7.35;;;2.30;;
47749;SDS011;49810;48.160;10.812;2023-04-15T08:53:51;6.68;;;2.03;;
47749;SDS011;49810;48.160;10.812;2023-04-15T08:56:22;5.80;;;2.50;;
47749;SDS011;49810;48.160;10.812;2023-04-15T08:58:53;7.75;;;2.30;;
47749;SDS011;49810;48.160;10.812;2023-04-15T09:01:23;6.38;;;2.60;;
47749;SDS011;49810;48.160;10.812;2023-04-15T09:03:52;6.18;;;2.42;;
47749;SDS011;49810;48.160;10.812;2023-04-15T09:06:22;7.03;;;2.38;;
47749;SDS011;49810;48.160;10.812;2023-04-15T09:08:51;7.00;;;2.63;;
47749;SDS011;49810;48.160;10.812;2023-04-15T09:11:21;6.72;;;2.50;;
47749;SDS011;49810;48.160;10.812;2023-04-15T09:13:50;5.63;;;2.35;;
47749;SDS011;49810;48.160;10.812;2023-04-15T09:16:21;4.78;;;2.40;;
47749;SDS011;49810;48.160;10.812;2023-04-15T09:18:50;8.63;;;2.67;;
47749;SDS011;49810;48.160;10.812;2023-04-15T09:21:20;7.00;;;2.63;;
47749;SDS011;49810;48.160;10.812;2023-04-15T09:23:54;7.45;;;2.28;;
47749;SDS011;49810;48.160;10.812;2023-04-15T09:26:30;6.35;;;2.58;;
47749;SDS011;49810;48.160;10.812;2023-04-15T09:29:03;5.70;;;2.50;;
47749;SDS011;49810;48.160;10.812;2023-04-15T09:31:35;4.80;;;2.53;;
47749;SDS011;49810;48.160;10.812;2023-04-15T09:34:04;5.45;;;2.50;;
47749;SDS011;49810;48.160;10.812;2023-04-15T09:36:53;7.05;;;2.58;;
47749;SDS011;49810;48.160;10.812;2023-04-15T09:39:22;4.20;;;2.20;;
47749;SDS011;49810;48.160;10.812;2023-04-15T09:42:04;4.68;;;2.42;;
47749;SDS011;49810;48.160;10.812;2023-04-15T09:44:34;5.13;;;2.20;;
47749;SDS011;49810;48.160;10.812;2023-04-15T09:47:05;4.78;;;2.45;;
47749;SDS011;49810;48.160;10.812;2023-04-15T09:49:34;8.63;;;2.80;;
47749;SDS011;49810;48.160;10.812;2023-04-15T09:52:03;6.30;;;2.20;;
47749;SDS011;49810;48.160;10.812;2023-04-15T09:54:34;7.78;;;3.00;;
47749;SDS011;49810;48.160;10.812;2023-04-15T09:57:04;9.15;;;2.78;;
47749;SDS011;49810;48.160;10.812;2023-04-15T09:59:33;5.63;;;2.58;;
47749;SDS011;49810;48.160;10.812;2023-04-15T10:02:03;5.72;;;2.60;;
47749;SDS011;49810;48.160;10.812;2023-04-15T10:04:35;7.10;;;2.95;;
47749;SDS011;49810;48.160;10.812;2023-04-15T10:07:07;6.15;;;2.40;;
47749;SDS011;49810;48.160;10.812;2023-04-15T10:09:37;6.38;;;2.58;;
47749;SDS011;49810;48.160;10.812;2023-04-15T10:12:06;8.00;;;3.35;;
47749;SDS011;49810;48.160;10.812;2023-04-15T10:14:37;5.47;;;2.88;;
47749;SDS011;49810;48.160;10.812;2023-04-15T10:17:06;7.28;;;3.67;;
47749;SDS011;49810;48.160;10.812;2023-04-15T10:19:36;9.07;;;3.70;;
47749;SDS011;49810;48.160;10.812;2023-04-15T10:22:06;7.05;;;3.20;;
47749;SDS011;49810;48.160;10.812;2023-04-15T10:24:35;7.32;;;3.67;;
47749;SDS011;49810;48.160;10.812;2023-04-15T10:27:04;7.60;;;3.40;;
47749;SDS011;49810;48.160;10.812;2023-04-15T10:29:33;9.27;;;5.38;;
47749;SDS011;49810;48.160;10.812;2023-04-15T10:32:02;8.55;;;3.80;;
47749;SDS011;49810;48.160;10.812;2023-04-15T10:34:32;12.27;;;4.43;;
47749;SDS011;49810;48.160;10.812;2023-04-15T10:37:03;7.82;;;4.07;;
47749;SDS011;49810;48.160;10.812;2023-04-15T10:39:39;7.35;;;4.40;;
47749;SDS011;49810;48.160;10.812;2023-04-15T10:42:10;10.00;;;4.18;;
47749;SDS011;49810;48.160;10.812;2023-04-15T10:44:41;9.55;;;4.25;;
47749;SDS011;49810;48.160;10.812;2023-04-15T10:47:11;6.40;;;4.22;;
47749;SDS011;49810;48.160;10.812;2023-04-15T10:49:44;8.50;;;3.85;;
47749;SDS011;49810;48.160;10.812;2023-04-15T10:52:15;12.27;;;4.25;;
47749;SDS011;49810;48.160;10.812;2023-04-15T10:54:45;8.95;;;4.50;;
47749;SDS011;49810;48.160;10.812;2023-04-15T10:57:15;6.90;;;3.75;;
47749;SDS011;49810;48.160;10.812;2023-04-15T11:00:00;8.70;;;3.95;;
47749;SDS011;49810;48.160;10.812;2023-04-15T11:02:38;10.00;;;4.35;;
47749;SDS011;49810;48.160;10.812;2023-04-15T11:05:08;7.80;;;4.18;;
47749;SDS011;49810;48.160;10.812;2023-04-15T11:07:39;8.95;;;4.90;;
47749;SDS011;49810;48.160;10.812;2023-04-15T11:13:00;31.45;;;13.23;;
47749;SDS011;49810;48.160;10.812;2023-04-15T11:15:31;9.00;;;4.95;;
47749;SDS011;49810;48.160;10.812;2023-04-15T11:18:07;8.35;;;5.13;;
47749;SDS011;49810;48.160;10.812;2023-04-15T11:20:37;8.73;;;4.60;;
47749;SDS011;49810;48.160;10.812;2023-04-15T11:23:08;10.27;;;5.45;;
47749;SDS011;49810;48.160;10.812;2023-04-15T11:25:42;12.65;;;6.68;;
47749;SDS011;49810;48.160;10.812;2023-04-15T11:28:12;11.65;;;6.70;;
47749;SDS011;49810;48.160;10.812;2023-04-15T11:30:41;11.57;;;6.85;;
47749;SDS011;49810;48.160;10.812;2023-04-15T11:33:11;11.65;;;7.40;;
47749;SDS011;49810;48.160;10.812;2023-04-15T11:35:41;12.45;;;6.28;;
47749;SDS011;49810;48.160;10.812;2023-04-15T11:38:12;11.52;;;6.68;;
47749;SDS011;49810;48.160;10.812;2023-04-15T11:40:42;12.30;;;6.22;;
47749;SDS011;49810;48.160;10.812;2023-04-15T11:43:14;11.15;;;6.90;;
47749;SDS011;49810;48.160;10.812;2023-04-15T11:45:52;11.52;;;6.18;;
47749;SDS011;49810;48.160;10.812;2023-04-15T11:48:21;12.45;;;5.78;;
47749;SDS011;49810;48.160;10.812;2023-04-15T11:50:54;16.63;;;6.28;;
47749;SDS011;49810;48.160;10.812;2023-04-15T11:53:25;8.50;;;4.97;;
47749;SDS011;49810;48.160;10.812;2023-04-15T11:56:02;7.97;;;4.53;;
47749;SDS011;49810;48.160;10.812;2023-04-15T11:58:30;12.95;;;7.63;;
47749;SDS011;49810;48.160;10.812;2023-04-15T12:01:00;8.68;;;4.65;;
47749;SDS011;49810;48.160;10.812;2023-04-15T12:03:29;7.80;;;4.43;;
47749;SDS011;49810;48.160;10.812;2023-04-15T12:06:02;10.93;;;4.70;;
47749;SDS011;49810;48.160;10.812;2023-04-15T12:11:18;11.45;;;5.30;;
47749;SDS011;49810;48.160;10.812;2023-04-15T12:13:46;10.45;;;4.93;;
47749;SDS011;49810;48.160;10.812;2023-04-15T12:16:15;10.77;;;5.05;;
47749;SDS011;49810;48.160;10.812;2023-04-15T12:18:44;8.20;;;4.57;;
47749;SDS011;49810;48.160;10.812;2023-04-15T12:21:12;8.18;;;4.78;;
47749;SDS011;49810;48.160;10.812;2023-04-15T12:23:46;7.90;;;4.18;;
47749;SDS011;49810;48.160;10.812;2023-04-15T12:26:14;6.00;;;3.22;;
47749;SDS011;49810;48.160;10.812;2023-04-15T12:28:44;4.82;;;3.08;;
47749;SDS011;49810;48.160;10.812;2023-04-15T12:31:12;6.45;;;3.65;;
47749;SDS011;49810;48.160;10.812;2023-04-15T12:33:41;7.13;;;3.85;;
47749;SDS011;49810;48.160;10.812;2023-04-15T12:36:09;5.25;;;3.10;;
47749;SDS011;49810;48.160;10.812;2023-04-15T12:38:36;7.00;;;3.50;;
47749;SDS011;49810;48.160;10.812;2023-04-15T12:41:04;5.97;;;3.50;;
47749;SDS011;49810;48.160;10.812;2023-04-15T12:43:32;6.63;;;3.85;;
47749;SDS011;49810;48.160;10.812;2023-04-15T12:46:02;9.23;;;3.83;;
47749;SDS011;49810;48.160;10.812;2023-04-15T12:48:32;7.60;;;4.32;;
47749;SDS011;49810;48.160;10.812;2023-04-15T12:51:00;7.20;;;3.80;;
47749;SDS011;49810;48.160;10.812;2023-04-15T12:53:31;9.60;;;4.43;;
47749;SDS011;49810;48.160;10.812;2023-04-15T12:55:59;7.80;;;4.30;;
47749;SDS011;49810;48.160;10.812;2023-04-15T12:58:26;8.63;;;3.80;;
47749;SDS011;49810;48.160;10.812;2023-04-15T13:00:55;14.65;;;4.35;;
47749;SDS011;49810;48.160;10.812;2023-04-15T13:03:24;10.00;;;4.03;;
47749;SDS011;49810;48.160;10.812;2023-04-15T13:05:53;8.00;;;3.90;;
47749;SDS011;49810;48.160;10.812;2023-04-15T13:08:22;6.65;;;3.25;;
47749;SDS011;49810;48.160;10.812;2023-04-15T13:10:50;8.38;;;3.40;;
47749;SDS011;49810;48.160;10.812;2023-04-15T13:13:19;6.10;;;3.05;;
47749;SDS011;49810;48.160;10.812;2023-04-15T13:15:48;6.85;;;3.60;;
47749;SDS011;49810;48.160;10.812;2023-04-15T13:18:16;6.75;;;3.80;;
47749;SDS011;49810;48.160;10.812;2023-04-15T13:20:45;6.35;;;3.47;;
47749;SDS011;49810;48.160;10.812;2023-04-15T13:23:13;5.63;;;3.70;;
47749;SDS011;49810;48.160;10.812;2023-04-15T13:25:43;7.75;;;3.42;;
47749;SDS011;49810;48.160;10.812;2023-04-15T13:28:11;6.90;;;3.97;;
47749;SDS011;49810;48.160;10.812;2023-04-15T13:30:39;9.45;;;3.67;;
47749;SDS011;49810;48.160;10.812;2023-04-15T13:33:07;6.35;;;3.60;;
47749;SDS011;49810;48.160;10.812;2023-04-15T13:35:35;7.13;;;3.90;;
47749;SDS011;49810;48.160;10.812;2023-04-15T13:38:04;9.68;;;4.18;;
47749;SDS011;49810;48.160;10.812;2023-04-15T13:40:32;6.85;;;3.72;;
47749;SDS011;49810;48.160;10.812;2023-04-15T13:43:01;7.80;;;3.28;;
47749;SDS011;49810;48.160;10.812;2023-04-15T13:45:28;6.68;;;3.53;;
47749;SDS011;49810;48.160;10.812;2023-04-15T13:47:57;8.98;;;3.90;;
47749;SDS011;49810;48.160;10.812;2023-04-15T13:50:25;9.75;;;3.42;;
47749;SDS011;49810;48.160;10.812;2023-04-15T13:52:54;5.35;;;2.92;;
47749;SDS011;49810;48.160;10.812;2023-04-15T13:55:23;7.15;;;3.17;;
47749;SDS011;49810;48.160;10.812;2023-04-15T13:57:53;7.65;;;3.70;;
47749;SDS011;49810;48.160;10.812;2023-04-15T14:00:20;8.38;;;3.80;;
47749;SDS011;49810;48.160;10.812;2023-04-15T14:02:49;6.38;;;3.35;;
47749;SDS011;49810;48.160;10.812;2023-04-15T14:05:17;6.43;;;3.10;;
47749;SDS011;49810;48.160;10.812;2023-04-15T14:07:47;6.72;;;3.50;;
47749;SDS011;49810;48.160;10.812;2023-04-15T14:10:15;9.95;;;3.58;;
47749;SDS011;49810;48.160;10.812;2023-04-15T14:12:44;7.32;;;3.33;;
47749;SDS011;49810;48.160;10.812;2023-04-15T14:15:12;8.23;;;3.72;;
47749;SDS011;49810;48.160;10.812;2023-04-15T14:17:41;8.98;;;3.40;;
47749;SDS011;49810;48.160;10.812;2023-04-15T14:20:09;10.95;;;3.60;;
47749;SDS011;49810;48.160;10.812;2023-04-15T14:22:37;8.13;;;3.20;;
47749;SDS011;49810;48.160;10.812;2023-04-15T14:25:05;9.38;;;4.43;;
47749;SDS011;49810;48.160;10.812;2023-04-15T14:27:33;7.53;;;3.22;;
47749;SDS011;49810;48.160;10.812;2023-04-15T14:30:03;10.60;;;3.63;;
47749;SDS011;49810;48.160;10.812;2023-04-15T14:32:31;8.23;;;3.75;;
47749;SDS011;49810;48.160;10.812;2023-04-15T14:34:59;8.52;;;3.67;;
47749;SDS011;49810;48.160;10.812;2023-04-15T14:37:27;6.30;;;3.25;;
47749;SDS011;49810;48.160;10.812;2023-04-15T14:39:55;8.40;;;3.40;;
47749;SDS011;49810;48.160;10.812;2023-04-15T14:42:22;6.82;;;3.50;;
47749;SDS011;49810;48.160;10.812;2023-04-15T14:44:50;8.93;;;3.60;;
47749;SDS011;49810;48.160;10.812;2023-04-15T14:47:20;6.75;;;3.38;;
47749;SDS011;49810;48.160;10.812;2023-04-15T14:49:48;12.48;;;4.20;;
47749;SDS011;49810;48.160;10.812;2023-04-15T14:52:16;6.88;;;3.28;;